createdAt,value
2023-02-01T00:00:35.719Z,6.40
2023-02-01T00:02:41.814Z,6.40
2023-02-01T00:04:44.446Z,6.40
2023-02-01T00:06:47.083Z,6.40
2023-02-01T00:08:50.215Z,6.40
2023-02-01T00:10:59.638Z,7.00
2023-02-01T00:13:02.028Z,6.50
2023-02-01T00:15:05.335Z,6.50
2023-02-01T00:17:10.393Z,6.50
2023-02-01T00:19:15.868Z,6.40
2023-02-01T00:21:20.406Z,6.40
2023-02-01T00:23:22.518Z,6.50
2023-02-01T00:25:25.174Z,6.50
2023-02-01T00:27:27.670Z,6.40
2023-02-01T00:29:30.077Z,6.40
2023-02-01T00:31:32.757Z,6.40
2023-02-01T00:33:37.949Z,6.40
2023-02-01T00:35:46.010Z,6.50
2023-02-01T00:37:48.770Z,6.50
2023-02-01T00:39:51.424Z,6.50
2023-02-01T00:41:53.857Z,6.50
2023-02-01T00:43:56.957Z,6.50
2023-02-01T00:45:59.696Z,6.50
2023-02-01T00:48:02.398Z,6.50
2023-02-01T00:50:08.523Z,6.50
2023-02-01T00:52:11.210Z,6.40
2023-02-01T00:54:13.799Z,6.40
2023-02-01T00:56:16.323Z,6.40
2023-02-01T00:58:19.010Z,6.50
2023-02-01T01:00:21.830Z,6.50
2023-02-01T01:02:27.443Z,6.50
2023-02-01T01:04:30.838Z,6.50
2023-02-01T01:06:35.941Z,6.50
2023-02-01T01:08:40.815Z,6.60
2023-02-01T01:10:56.707Z,6.60
2023-02-01T01:12:59.682Z,6.60
2023-02-01T01:15:02.121Z,6.60
2023-02-01T01:17:04.681Z,6.60
2023-02-01T01:19:10.065Z,6.60
2023-02-01T01:21:14.298Z,6.70
2023-02-01T01:23:19.857Z,6.50
2023-02-01T01:25:22.395Z,7.00
2023-02-01T01:27:26.207Z,6.50
2023-02-01T01:29:28.932Z,7.10
2023-02-01T01:31:36.305Z,6.50
2023-02-01T01:33:39.061Z,7.30
2023-02-01T01:35:43.593Z,6.70
2023-02-01T01:37:46.098Z,6.60
2023-02-01T01:39:51.436Z,6.60
2023-02-01T01:41:53.824Z,6.60
2023-02-01T01:44:02.949Z,6.60
2023-02-01T01:46:05.980Z,6.80
2023-02-01T01:48:19.664Z,6.60
2023-02-01T01:50:25.781Z,6.50
2023-02-01T01:52:28.335Z,6.60
2023-02-01T01:54:35.100Z,6.50
2023-02-01T01:56:41.815Z,6.60
2023-02-01T01:58:45.615Z,6.60
2023-02-01T02:00:49.121Z,6.50
2023-02-01T02:02:57.619Z,6.50
2023-02-01T02:05:00.971Z,6.50
2023-02-01T02:07:06.704Z,6.40
2023-02-01T02:09:09.278Z,6.40
2023-02-01T02:11:15.659Z,6.40
2023-02-01T02:13:35.140Z,6.40
2023-02-01T02:15:43.056Z,7.00
2023-02-01T02:17:54.685Z,6.30
2023-02-01T02:20:39.558Z,6.30
2023-02-01T02:23:28.771Z,6.30
2023-02-01T02:26:24.836Z,6.20
2023-02-01T02:29:07.111Z,6.20
2023-02-01T02:31:40.720Z,6.20
2023-02-01T02:33:53.056Z,6.20
2023-02-01T02:36:01.324Z,6.20
2023-02-01T02:38:13.248Z,6.10
2023-02-01T02:40:30.432Z,6.10
2023-02-01T02:42:58.777Z,6.00
2023-02-01T02:45:26.181Z,6.00
2023-02-01T02:47:42.025Z,6.10
2023-02-01T02:50:14.529Z,6.10
2023-02-01T02:52:38.810Z,6.10
2023-02-01T02:54:55.139Z,6.20
2023-02-01T02:57:19.100Z,6.10
2023-02-01T02:59:47.944Z,6.10
2023-02-01T03:02:09.604Z,6.10
2023-02-01T03:04:18.565Z,6.10
2023-02-01T03:06:27.683Z,6.20
2023-02-01T03:08:34.922Z,6.20
2023-02-01T03:10:45.541Z,6.20
2023-02-01T03:12:57.825Z,6.20
2023-02-01T03:15:08.258Z,6.30
2023-02-01T03:17:15.472Z,6.30
2023-02-01T03:19:23.014Z,6.40
2023-02-01T03:21:33.492Z,6.20
2023-02-01T03:23:39.638Z,6.40
2023-02-01T03:25:43.079Z,6.40
2023-02-01T03:27:53.133Z,6.40
2023-02-01T03:30:02.239Z,6.40
2023-02-01T03:32:05.305Z,6.40
2023-02-01T03:34:08.432Z,6.40
2023-02-01T03:36:24.957Z,7.00
2023-02-01T03:38:35.031Z,6.40
2023-02-01T03:40:55.274Z,6.40
2023-02-01T03:43:02.337Z,6.40
2023-02-01T03:45:11.403Z,6.50
2023-02-01T03:47:21.065Z,6.50
2023-02-01T03:49:28.912Z,6.50
2023-02-01T03:51:33.024Z,6.50
2023-02-01T03:53:39.349Z,6.50
2023-02-01T03:55:43.939Z,6.50
2023-02-01T03:57:53.927Z,6.50
2023-02-01T04:00:05.916Z,6.50
2023-02-01T04:02:16.457Z,6.40
2023-02-01T04:04:23.013Z,6.70
2023-02-01T04:06:30.201Z,6.40
2023-02-01T04:08:45.622Z,6.40
2023-02-01T04:10:48.173Z,6.40
2023-02-01T04:12:50.597Z,6.30
2023-02-01T04:14:52.915Z,6.40
2023-02-01T04:16:55.483Z,6.30
2023-02-01T04:18:58.730Z,6.30
2023-02-01T04:21:02.243Z,6.40
2023-02-01T04:23:04.795Z,6.40
2023-02-01T04:25:10.529Z,6.40
2023-02-01T04:27:13.487Z,6.40
2023-02-01T04:29:16.131Z,6.40
2023-02-01T04:31:26.621Z,6.40
2023-02-01T04:33:29.319Z,6.50
2023-02-01T04:35:31.723Z,6.50
2023-02-01T04:37:39.586Z,6.50
2023-02-01T04:39:42.136Z,6.50
2023-02-01T04:41:47.315Z,6.50
2023-02-01T04:43:52.072Z,6.50
2023-02-01T04:45:56.645Z,6.50
2023-02-01T04:47:59.262Z,6.50
2023-02-01T04:50:01.907Z,6.60
2023-02-01T04:52:04.723Z,6.50
2023-02-01T04:54:07.642Z,6.60
2023-02-01T04:56:10.416Z,6.90
2023-02-01T04:58:15.603Z,6.60
2023-02-01T05:00:19.128Z,6.60
2023-02-01T05:02:21.751Z,6.60
2023-02-01T05:04:24.178Z,6.60
2023-02-01T05:06:26.618Z,6.50
2023-02-01T05:08:30.622Z,6.50
2023-02-01T05:10:33.051Z,6.50
2023-02-01T05:12:53.919Z,6.50
2023-02-01T05:14:58.884Z,6.60
2023-02-01T05:17:01.571Z,6.50
2023-02-01T05:19:06.434Z,6.50
2023-02-01T05:21:09.274Z,6.50
2023-02-01T05:23:18.094Z,6.50
2023-02-01T05:25:20.772Z,6.60
2023-02-01T05:27:23.373Z,6.50
2023-02-01T05:29:32.318Z,6.40
2023-02-01T05:31:45.912Z,6.50
2023-02-01T05:33:48.596Z,6.40
2023-02-01T05:35:51.632Z,7.40
2023-02-01T05:37:54.425Z,6.50
2023-02-01T05:39:57.407Z,6.50
2023-02-01T05:42:02.856Z,6.60
2023-02-01T05:44:08.253Z,6.60
2023-02-01T05:46:14.209Z,6.60
2023-02-01T05:48:19.474Z,6.60
2023-02-01T05:50:22.209Z,6.70
2023-02-01T05:52:33.299Z,6.60
2023-02-01T05:54:35.828Z,6.80
2023-02-01T05:56:38.358Z,6.70
2023-02-01T05:58:42.222Z,6.70
2023-02-01T06:00:44.632Z,6.70
2023-02-01T06:02:47.458Z,6.70
2023-02-01T06:04:53.965Z,6.70
2023-02-01T06:06:56.491Z,6.70
2023-02-01T06:09:01.151Z,6.70
2023-02-01T06:11:05.498Z,6.70
2023-02-01T06:13:11.421Z,6.60
2023-02-01T06:15:16.673Z,6.60
2023-02-01T06:17:19.251Z,6.60
2023-02-01T06:19:21.892Z,6.50
2023-02-01T06:21:40.434Z,6.50
2023-02-01T06:23:43.058Z,6.50
2023-02-01T06:25:46.334Z,6.50
2023-02-01T06:27:49.433Z,6.50
2023-02-01T06:29:52.009Z,6.50
2023-02-01T06:31:56.247Z,6.50
2023-02-01T06:33:58.751Z,7.30
2023-02-01T06:36:09.254Z,6.50
2023-02-01T06:38:24.682Z,6.50
2023-02-01T06:40:27.297Z,6.40
2023-02-01T06:42:29.910Z,6.50
2023-02-01T06:44:32.603Z,6.50
2023-02-01T06:46:35.115Z,6.50
2023-02-01T06:48:41.681Z,6.50
2023-02-01T06:50:44.261Z,6.50
2023-02-01T06:52:46.875Z,6.60
2023-02-01T06:54:52.167Z,6.60
2023-02-01T06:56:54.556Z,6.70
2023-02-01T06:58:56.992Z,6.60
2023-02-01T07:01:05.174Z,6.70
2023-02-01T07:03:07.719Z,6.60
2023-02-01T07:05:10.749Z,6.60
2023-02-01T07:07:13.365Z,6.70
2023-02-01T07:09:17.133Z,6.70
2023-02-01T07:11:22.791Z,6.70
2023-02-01T07:13:46.123Z,6.70
2023-02-01T07:16:12.502Z,6.70
2023-02-01T07:18:37.517Z,6.70
2023-02-01T07:20:40.030Z,6.70
2023-02-01T07:22:45.557Z,7.20
2023-02-01T07:24:48.946Z,6.60
2023-02-01T07:26:53.950Z,6.70
2023-02-01T07:28:56.394Z,7.10
2023-02-01T07:31:03.742Z,6.70
2023-02-01T07:33:07.432Z,6.70
2023-02-01T07:35:10.087Z,6.70
2023-02-01T07:37:12.655Z,7.00
2023-02-01T07:39:15.000Z,6.70
2023-02-01T07:41:18.539Z,6.70
2023-02-01T07:43:23.554Z,6.70
2023-02-01T07:45:26.752Z,6.70
2023-02-01T07:47:29.189Z,6.70
2023-02-01T07:49:31.930Z,6.70
2023-02-01T07:51:34.379Z,6.70
2023-02-01T07:53:37.248Z,6.70
2023-02-01T07:55:39.781Z,6.70
2023-02-01T07:57:42.709Z,6.60
2023-02-01T08:00:06.297Z,6.70
2023-02-01T08:02:22.107Z,6.70
2023-02-01T08:04:24.633Z,6.70
2023-02-01T08:06:28.021Z,6.70
2023-02-01T08:08:30.466Z,6.80
2023-02-01T08:10:34.479Z,6.70
2023-02-01T08:12:36.855Z,6.70
2023-02-01T08:14:41.962Z,6.80
2023-02-01T08:16:46.959Z,6.70
2023-02-01T08:18:49.461Z,6.80
2023-02-01T08:20:52.131Z,6.80
2023-02-01T08:22:54.838Z,6.80
2023-02-01T08:25:02.335Z,6.80
2023-02-01T08:27:04.922Z,6.70
2023-02-01T08:29:08.312Z,6.80
2023-02-01T08:31:12.979Z,6.80
2023-02-01T08:33:18.045Z,6.80
2023-02-01T08:35:21.213Z,6.70
2023-02-01T08:37:26.098Z,6.80
2023-02-01T08:39:28.694Z,6.80
2023-02-01T08:41:31.555Z,6.80
2023-02-01T08:43:34.079Z,6.80
2023-02-01T08:45:57.030Z,6.80
2023-02-01T08:47:59.755Z,6.80
2023-02-01T08:50:07.690Z,7.10
2023-02-01T08:52:15.968Z,6.80
2023-02-01T08:54:19.257Z,6.80
2023-02-01T08:56:22.042Z,6.80
2023-02-01T08:58:26.631Z,6.80
2023-02-01T09:00:29.044Z,6.80
2023-02-01T09:02:51.378Z,6.80
2023-02-01T09:04:53.991Z,6.80
2023-02-01T09:06:59.741Z,6.80
2023-02-01T09:09:02.092Z,6.80
2023-02-01T09:11:13.051Z,6.80
2023-02-01T09:13:15.462Z,6.80
2023-02-01T09:15:17.991Z,6.80
2023-02-01T09:17:20.383Z,6.80
2023-02-01T09:19:26.360Z,7.40
2023-02-01T09:21:29.553Z,6.80
2023-02-01T09:23:35.077Z,6.80
2023-02-01T09:25:39.194Z,6.80
2023-02-01T09:27:41.629Z,6.80
2023-02-01T09:29:44.015Z,6.80
2023-02-01T09:31:57.457Z,6.80
2023-02-01T09:34:05.625Z,6.80
2023-02-01T09:36:08.617Z,6.90
2023-02-01T09:38:10.997Z,6.90
2023-02-01T09:40:18.608Z,6.80
2023-02-01T09:42:49.081Z,6.90
2023-02-01T09:45:02.392Z,6.80
2023-02-01T09:47:04.982Z,6.90
2023-02-01T09:49:13.539Z,6.80
2023-02-01T09:51:19.940Z,6.80
2023-02-01T09:53:27.741Z,7.00
2023-02-01T09:55:39.270Z,6.80
2023-02-01T09:57:51.797Z,6.80
2023-02-01T09:59:59.365Z,6.80
2023-02-01T10:02:04.309Z,6.80
2023-02-01T10:04:10.011Z,6.80
2023-02-01T10:06:26.576Z,6.70
2023-02-01T10:08:37.281Z,6.70
2023-02-01T10:10:47.063Z,6.70
2023-02-01T10:13:16.296Z,6.70
2023-02-01T10:15:29.773Z,6.60
2023-02-01T10:17:47.975Z,6.60
2023-02-01T10:19:59.891Z,6.60
2023-02-01T10:22:05.870Z,6.80
2023-02-01T10:24:18.891Z,6.50
2023-02-01T10:26:25.547Z,6.50
2023-02-01T10:28:27.950Z,6.50
2023-02-01T10:30:38.952Z,6.60
2023-02-01T10:32:42.198Z,6.60
2023-02-01T10:34:49.142Z,6.60
2023-02-01T10:36:56.648Z,6.70
2023-02-01T10:39:00.101Z,6.70
2023-02-01T10:41:09.478Z,6.70
2023-02-01T10:43:14.856Z,6.70
2023-02-01T10:45:19.621Z,6.70
2023-02-01T10:47:22.381Z,6.80
2023-02-01T10:49:30.979Z,6.90
2023-02-01T10:51:44.131Z,7.00
2023-02-01T10:53:51.801Z,7.10
2023-02-01T10:55:55.896Z,7.00
2023-02-01T10:57:59.710Z,7.10
2023-02-01T11:00:20.474Z,7.10
2023-02-01T11:02:29.131Z,7.20
2023-02-01T11:04:36.407Z,7.20
2023-02-01T11:06:41.060Z,7.20
2023-02-01T11:08:46.577Z,7.10
2023-02-01T11:10:57.445Z,7.00
2023-02-01T11:13:04.341Z,7.00
2023-02-01T11:15:23.196Z,6.90
2023-02-01T11:17:29.920Z,6.80
2023-02-01T11:19:32.919Z,6.80
2023-02-01T11:21:36.289Z,6.80
2023-02-01T11:23:45.570Z,6.80
2023-02-01T11:25:53.257Z,6.90
2023-02-01T11:27:57.121Z,6.80
2023-02-01T11:30:02.591Z,7.20
2023-02-01T11:32:10.668Z,6.70
2023-02-01T11:34:17.023Z,6.70
2023-02-01T11:36:22.186Z,6.70
2023-02-01T11:38:29.762Z,6.70
2023-02-01T11:40:39.123Z,6.80
2023-02-01T11:42:55.512Z,6.80
2023-02-01T11:45:18.826Z,6.90
2023-02-01T11:47:26.676Z,7.00
2023-02-01T11:49:29.589Z,7.00
2023-02-01T11:51:44.310Z,7.10
2023-02-01T11:53:58.202Z,7.10
2023-02-01T11:56:15.429Z,7.10
2023-02-01T11:58:33.098Z,7.20
2023-02-01T12:00:53.243Z,7.30
2023-02-01T12:03:30.465Z,7.30
2023-02-01T12:05:42.049Z,7.30
2023-02-01T12:08:08.553Z,7.40
2023-02-01T12:10:24.794Z,7.30
2023-02-01T12:12:33.628Z,7.40
2023-02-01T12:15:07.317Z,7.40
2023-02-01T12:17:49.833Z,7.40
2023-02-01T12:20:11.240Z,7.50
2023-02-01T12:22:26.371Z,7.70
2023-02-01T12:24:47.038Z,7.70
2023-02-01T12:26:57.744Z,7.70
2023-02-01T12:29:17.087Z,7.80
2023-02-01T12:31:40.961Z,7.90
2023-02-01T12:33:58.223Z,7.90
2023-02-01T12:36:17.572Z,8.00
2023-02-01T12:38:37.732Z,8.20
2023-02-01T12:40:49.475Z,8.30
2023-02-01T12:42:58.082Z,8.40
2023-02-01T12:45:08.059Z,8.50
2023-02-01T12:47:18.544Z,8.40
2023-02-01T12:49:26.642Z,8.30
2023-02-01T12:51:36.531Z,8.30
2023-02-01T12:53:51.544Z,8.20
2023-02-01T12:55:56.055Z,8.10
2023-02-01T12:58:08.397Z,8.00
2023-02-01T13:00:23.848Z,8.00
2023-02-01T13:02:34.459Z,8.00
2023-02-01T13:04:43.377Z,8.10
2023-02-01T13:06:54.007Z,8.00
2023-02-01T13:09:04.670Z,8.10
2023-02-01T13:11:14.912Z,8.10
2023-02-01T13:13:23.913Z,8.10
2023-02-01T13:15:30.760Z,8.10
2023-02-01T13:17:35.027Z,8.20
2023-02-01T13:19:41.699Z,8.20
2023-02-01T13:21:52.470Z,8.10
2023-02-01T13:23:54.923Z,8.10
2023-02-01T13:25:58.125Z,8.10
2023-02-01T13:28:07.066Z,8.10
2023-02-01T13:30:16.988Z,8.20
2023-02-01T13:33:51.467Z,8.20
2023-02-01T13:35:36.480Z,8.20
2023-02-01T13:38:05.368Z,8.20
2023-02-01T13:40:27.766Z,8.30
2023-02-01T13:42:32.448Z,8.30
2023-02-01T13:44:40.225Z,8.30
2023-02-01T13:46:45.225Z,8.20
2023-02-01T13:48:50.611Z,8.20
2023-02-01T13:50:56.739Z,8.20
2023-02-01T13:53:08.218Z,8.20
2023-02-01T13:55:27.587Z,8.10
2023-02-01T13:57:37.631Z,8.10
2023-02-01T14:00:08.299Z,8.20
2023-02-01T14:02:46.479Z,8.20
2023-02-01T14:04:50.048Z,8.20
2023-02-01T14:06:54.109Z,8.20
2023-02-01T14:09:18.080Z,8.10
2023-02-01T14:11:36.873Z,8.10
2023-02-01T14:13:41.057Z,8.10
2023-02-01T14:16:17.581Z,8.10
2023-02-01T14:18:51.162Z,8.10
2023-02-01T14:21:22.210Z,8.00
2023-02-01T14:23:27.711Z,8.00
2023-02-01T14:25:34.318Z,8.00
2023-02-01T14:27:37.499Z,8.00
2023-02-01T14:29:43.439Z,8.00
2023-02-01T14:32:04.995Z,8.00
2023-02-01T14:34:16.557Z,8.00
2023-02-01T14:36:19.090Z,8.10
2023-02-01T14:38:22.342Z,8.00
2023-02-01T14:40:27.677Z,8.10
2023-02-01T14:42:34.776Z,8.10
2023-02-01T14:44:38.156Z,8.10
2023-02-01T14:47:01.955Z,8.10
2023-02-01T14:49:07.367Z,8.00
2023-02-01T14:51:12.481Z,8.10
2023-02-01T14:53:21.460Z,8.10
2023-02-01T14:55:29.772Z,8.10
2023-02-01T14:57:34.684Z,8.10
2023-02-01T14:59:38.743Z,8.80
2023-02-01T15:01:51.158Z,8.00
2023-02-01T15:04:01.164Z,8.00
2023-02-01T15:06:17.335Z,7.90
2023-02-01T15:08:29.023Z,7.90
2023-02-01T15:10:34.235Z,7.80
2023-02-01T15:12:41.949Z,7.80
2023-02-01T15:14:50.179Z,7.80
2023-02-01T15:16:56.331Z,7.70
2023-02-01T15:19:14.812Z,7.80
2023-02-01T15:21:28.535Z,7.80
2023-02-01T15:23:35.606Z,7.70
2023-02-01T15:25:39.927Z,7.80
2023-02-01T15:27:42.414Z,7.80
2023-02-01T15:29:44.781Z,8.00
2023-02-01T15:31:49.672Z,7.80
2023-02-01T15:34:00.708Z,7.80
2023-02-01T15:36:12.969Z,7.80
2023-02-01T15:39:10.864Z,7.90
2023-02-01T15:41:16.547Z,7.90
2023-02-01T15:43:18.979Z,7.90
2023-02-01T15:45:23.579Z,7.90
2023-02-01T15:47:28.563Z,7.80
2023-02-01T15:49:37.343Z,7.80
2023-02-01T15:51:46.323Z,7.90
2023-02-01T15:53:54.187Z,7.80
2023-02-01T15:56:00.666Z,7.70
2023-02-01T15:58:07.356Z,7.70
2023-02-01T16:00:22.760Z,7.70
2023-02-01T16:02:30.308Z,7.70
2023-02-01T16:04:33.999Z,7.60
2023-02-01T16:06:36.486Z,7.60
2023-02-01T16:08:49.574Z,7.50
2023-02-01T16:11:00.866Z,7.40
2023-02-01T16:13:03.204Z,7.40
2023-02-01T16:15:06.862Z,7.40
2023-02-01T16:17:10.811Z,7.40
2023-02-01T16:19:13.205Z,7.30
2023-02-01T16:21:15.859Z,7.50
2023-02-01T16:23:18.472Z,7.20
2023-02-01T16:25:20.918Z,7.20
2023-02-01T16:27:26.137Z,7.20
2023-02-01T16:29:28.649Z,7.00
2023-02-01T16:31:32.685Z,7.10
2023-02-01T16:33:35.172Z,7.10
2023-02-01T16:35:39.088Z,7.10
2023-02-01T16:37:41.521Z,7.10
2023-02-01T16:39:43.875Z,7.10
2023-02-01T16:41:46.477Z,7.10
2023-02-01T16:43:55.167Z,7.00
2023-02-01T16:46:03.493Z,7.00
2023-02-01T16:48:06.350Z,7.00
2023-02-01T16:50:23.149Z,6.90
2023-02-01T16:52:28.118Z,6.90
2023-02-01T16:54:30.555Z,7.00
2023-02-01T16:56:34.784Z,6.90
2023-02-01T16:58:37.080Z,6.80
2023-02-01T17:00:42.226Z,6.80
2023-02-01T17:02:46.797Z,6.80
2023-02-01T17:04:49.869Z,6.70
2023-02-01T17:06:52.390Z,6.70
2023-02-01T17:08:56.929Z,6.70
2023-02-01T17:10:59.442Z,6.60
2023-02-01T17:13:02.722Z,6.70
2023-02-01T17:15:07.599Z,6.70
2023-02-01T17:17:13.440Z,6.70
2023-02-01T17:19:18.923Z,6.70
2023-02-01T17:21:21.695Z,6.70
2023-02-01T17:23:24.501Z,6.70
2023-02-01T17:25:28.731Z,6.70
2023-02-01T17:27:31.108Z,6.80
2023-02-01T17:29:33.740Z,6.80
2023-02-01T17:31:40.895Z,6.80
2023-02-01T17:33:45.919Z,6.70
2023-02-01T17:35:48.633Z,6.70
2023-02-01T17:37:52.257Z,6.70
2023-02-01T17:39:57.865Z,6.80
2023-02-01T17:42:00.655Z,6.90
2023-02-01T17:44:03.862Z,6.70
2023-02-01T17:46:12.309Z,6.70
2023-02-01T17:48:17.656Z,6.80
2023-02-01T17:50:23.197Z,6.70
2023-02-01T17:52:26.420Z,7.10
2023-02-01T17:54:29.166Z,6.90
2023-02-01T17:56:32.820Z,6.70
2023-02-01T17:58:35.239Z,6.70
2023-02-01T18:00:39.082Z,6.70
2023-02-01T18:02:41.739Z,6.70
2023-02-01T18:04:44.107Z,6.80
2023-02-01T18:06:49.006Z,6.70
2023-02-01T18:08:51.459Z,6.60
2023-02-01T18:10:58.420Z,6.60
2023-02-01T18:13:01.952Z,6.60
2023-02-01T18:15:14.987Z,6.60
2023-02-01T18:17:18.212Z,6.60
2023-02-01T18:19:20.586Z,6.60
2023-02-01T18:21:23.956Z,6.60
2023-02-01T18:23:28.916Z,6.60
2023-02-01T18:25:37.156Z,6.70
2023-02-01T18:27:39.480Z,6.70
2023-02-01T18:29:41.866Z,6.70
2023-02-01T18:31:47.215Z,6.70
2023-02-01T18:33:50.217Z,6.60
2023-02-01T18:35:52.598Z,6.70
2023-02-01T18:37:56.629Z,6.70
2023-02-01T18:40:01.659Z,6.60
2023-02-01T18:42:04.224Z,6.70
2023-02-01T18:44:06.761Z,6.70
2023-02-01T18:46:10.147Z,6.60
2023-02-01T18:48:14.472Z,6.60
2023-02-01T18:50:17.030Z,6.60
2023-02-01T18:52:19.387Z,6.50
2023-02-01T18:54:21.745Z,6.60
2023-02-01T18:56:26.911Z,6.60
2023-02-01T18:58:29.509Z,6.50
2023-02-01T19:00:32.736Z,6.50
2023-02-01T19:02:35.181Z,6.60
2023-02-01T19:04:37.565Z,6.60
2023-02-01T19:06:39.952Z,6.50
2023-02-01T19:08:44.676Z,6.50
2023-02-01T19:10:47.068Z,6.50
2023-02-01T19:12:55.443Z,6.50
2023-02-01T19:14:57.903Z,6.50
2023-02-01T19:17:00.508Z,6.60
2023-02-01T19:19:03.660Z,6.50
2023-02-01T19:21:08.682Z,6.50
2023-02-01T19:23:11.128Z,6.40
2023-02-01T19:25:16.133Z,6.40
2023-02-01T19:27:21.381Z,6.40
2023-02-01T19:29:27.391Z,6.40
2023-02-01T19:31:29.931Z,6.40
2023-02-01T19:33:32.718Z,6.40
2023-02-01T19:35:35.117Z,6.40
2023-02-01T19:37:37.579Z,6.40
2023-02-01T19:39:41.185Z,6.40
2023-02-01T19:41:43.501Z,6.60
2023-02-01T19:43:46.631Z,6.30
2023-02-01T19:45:51.591Z,6.30
2023-02-01T19:47:54.060Z,6.30
2023-02-01T19:49:56.463Z,6.20
2023-02-01T19:51:58.893Z,6.20
2023-02-01T19:54:01.274Z,6.20
2023-02-01T19:56:03.985Z,6.20
2023-02-01T19:58:06.350Z,6.20
2023-02-01T20:00:13.622Z,6.20
2023-02-01T20:02:18.826Z,6.20
2023-02-01T20:04:21.564Z,6.20
2023-02-01T20:06:23.926Z,6.20
2023-02-01T20:08:26.384Z,6.30
2023-02-01T20:10:28.948Z,6.30
2023-02-01T20:12:31.341Z,6.30
2023-02-01T20:14:33.873Z,6.20
2023-02-01T20:16:36.833Z,6.20
2023-02-01T20:18:42.438Z,6.30
2023-02-01T20:20:45.643Z,6.30
2023-02-01T20:22:48.568Z,6.30
2023-02-01T20:24:50.864Z,6.20
2023-02-01T20:26:54.200Z,6.20
2023-02-01T20:28:56.628Z,6.20
2023-02-01T20:30:59.875Z,6.20
2023-02-01T20:33:02.542Z,6.20
2023-02-01T20:35:09.122Z,6.20
2023-02-01T20:37:11.553Z,6.20
2023-02-01T20:39:14.728Z,6.20
2023-02-01T20:41:17.392Z,6.10
2023-02-01T20:43:20.245Z,6.10
2023-02-01T20:45:23.319Z,6.10
2023-02-01T20:47:27.341Z,6.10
2023-02-01T20:49:29.804Z,6.00
2023-02-01T20:51:34.835Z,6.10
2023-02-01T20:53:44.507Z,6.10
2023-02-01T20:55:47.149Z,6.10
2023-02-01T20:57:49.601Z,6.10
2023-02-01T20:59:52.445Z,6.40
2023-02-01T21:01:55.009Z,6.10
2023-02-01T21:03:57.570Z,6.00
2023-02-01T21:06:01.319Z,6.00
2023-02-01T21:08:06.792Z,6.00
2023-02-01T21:10:11.036Z,6.00
2023-02-01T21:12:13.349Z,6.00
2023-02-01T21:14:22.770Z,6.00
2023-02-01T21:16:26.937Z,6.00
2023-02-01T21:18:30.510Z,6.00
2023-02-01T21:20:35.283Z,6.00
2023-02-01T21:22:38.682Z,6.00
2023-02-01T21:24:52.326Z,6.00
2023-02-01T21:26:54.696Z,5.90
2023-02-01T21:28:57.291Z,5.90
2023-02-01T21:30:59.714Z,5.90
2023-02-01T21:33:02.380Z,5.90
2023-02-01T21:35:05.404Z,5.80
2023-02-01T21:37:08.530Z,5.80
2023-02-01T21:39:12.231Z,5.70
2023-02-01T21:41:36.550Z,5.70
2023-02-01T21:43:39.015Z,5.70
2023-02-01T21:45:43.719Z,5.70
2023-02-01T21:47:51.591Z,5.60
2023-02-01T21:50:07.241Z,5.60
2023-02-01T21:52:12.787Z,5.70
2023-02-01T21:54:15.503Z,5.70
2023-02-01T21:56:20.826Z,5.60
2023-02-01T21:58:23.434Z,5.70
2023-02-01T22:00:25.796Z,5.60
2023-02-01T22:02:28.616Z,5.60
2023-02-01T22:04:31.222Z,6.60
2023-02-01T22:06:35.725Z,5.60
2023-02-01T22:08:42.330Z,5.60
2023-02-01T22:10:44.730Z,5.60
2023-02-01T22:12:49.982Z,5.60
2023-02-01T22:14:52.614Z,5.70
2023-02-01T22:16:56.720Z,5.60
2023-02-01T22:19:19.505Z,5.60
2023-02-01T22:21:24.593Z,5.60
2023-02-01T22:23:29.073Z,5.60
2023-02-01T22:25:31.955Z,5.60
2023-02-01T22:28:31.709Z,5.60
2023-02-01T22:30:12.215Z,5.60
2023-02-01T22:32:14.789Z,5.60
2023-02-01T22:34:17.263Z,5.70
2023-02-01T22:36:20.324Z,5.90
2023-02-01T22:38:23.398Z,5.70
2023-02-01T22:40:25.881Z,5.70
2023-02-01T22:42:28.341Z,5.70
2023-02-01T22:44:30.680Z,5.70
2023-02-01T22:46:37.229Z,5.70
2023-02-01T22:48:41.488Z,5.60
2023-02-01T22:50:44.499Z,5.60
2023-02-01T22:52:47.001Z,5.60
2023-02-01T22:54:55.285Z,5.60
2023-02-01T22:56:59.136Z,5.50
2023-02-01T22:59:03.780Z,5.50
2023-02-01T23:01:08.085Z,5.60
2023-02-01T23:03:13.231Z,5.50
2023-02-01T23:05:15.744Z,5.50
2023-02-01T23:07:18.243Z,5.50
2023-02-01T23:09:23.676Z,5.50
2023-02-01T23:11:27.307Z,5.50
2023-02-01T23:13:29.788Z,5.50
2023-02-01T23:15:32.279Z,5.50
2023-02-01T23:17:35.410Z,5.60
2023-02-01T23:19:40.405Z,5.60
2023-02-01T23:21:43.116Z,5.50
2023-02-01T23:23:47.372Z,5.50
2023-02-01T23:25:51.062Z,5.50
2023-02-01T23:27:53.634Z,5.40
2023-02-01T23:29:56.138Z,5.40
2023-02-01T23:31:58.561Z,5.30
2023-02-01T23:34:02.773Z,5.30
2023-02-01T23:36:12.763Z,5.20
2023-02-01T23:38:15.697Z,5.20
2023-02-01T23:40:18.661Z,5.10
2023-02-01T23:42:22.030Z,5.10
2023-02-01T23:44:24.707Z,5.00
2023-02-01T23:46:30.465Z,4.90
2023-02-01T23:48:32.947Z,5.20
2023-02-01T23:50:38.744Z,5.20
2023-02-01T23:52:43.719Z,4.90
2023-02-01T23:54:47.294Z,4.80
2023-02-01T23:56:50.357Z,4.80
2023-02-01T23:58:53.662Z,4.80
